createdAt,value
2018-06-15T00:00:55.114Z,0
2018-06-15T00:02:05.271Z,0
2018-06-15T00:03:15.088Z,0
2018-06-15T00:04:24.910Z,0
2018-06-15T00:05:35.001Z,0
2018-06-15T00:06:45.080Z,0
2018-06-15T00:07:56.038Z,0
2018-06-15T00:09:06.331Z,0
2018-06-15T00:10:16.135Z,0
2018-06-15T00:11:26.193Z,0
2018-06-15T00:12:36.262Z,0
2018-06-15T00:13:46.330Z,0
2018-06-15T00:14:56.414Z,0
2018-06-15T00:16:06.508Z,0
2018-06-15T00:17:16.311Z,0
2018-06-15T00:18:26.140Z,0
2018-06-15T00:19:36.219Z,0
2018-06-15T00:20:46.295Z,0
2018-06-15T00:21:56.353Z,0
2018-06-15T00:23:06.475Z,0
2018-06-15T00:24:16.278Z,0
2018-06-15T00:25:26.358Z,0
2018-06-15T00:26:36.451Z,0
2018-06-15T00:27:46.537Z,0
2018-06-15T00:28:56.613Z,0
2018-06-15T00:30:06.706Z,0
2018-06-15T00:31:16.580Z,0
2018-06-15T00:32:26.652Z,0
2018-06-15T00:33:36.453Z,0
2018-06-15T00:34:46.527Z,0
2018-06-15T00:35:56.598Z,0
2018-06-15T00:37:06.660Z,0
2018-06-15T00:38:16.778Z,0
2018-06-15T00:39:26.867Z,0
2018-06-15T00:40:36.940Z,0
2018-06-15T00:41:47.008Z,0
2018-06-15T00:42:57.093Z,0
2018-06-15T00:44:06.949Z,0
2018-06-15T00:45:17.017Z,0
2018-06-15T00:46:26.822Z,0
2018-06-15T00:47:35.854Z,0
2018-06-15T00:48:45.916Z,0
2018-06-15T00:49:55.986Z,0
2018-06-15T00:51:05.781Z,0
2018-06-15T00:52:15.604Z,0
2018-06-15T00:53:25.682Z,0
2018-06-15T00:54:35.748Z,0
2018-06-15T00:55:45.545Z,0
2018-06-15T00:56:55.622Z,0
2018-06-15T00:58:05.694Z,0
2018-06-15T00:59:15.753Z,0
2018-06-15T01:00:25.828Z,0
2018-06-15T01:01:35.907Z,0
2018-06-15T01:02:45.988Z,0
2018-06-15T01:03:56.044Z,0
2018-06-15T01:05:06.127Z,0
2018-06-15T01:06:16.200Z,0
2018-06-15T01:07:26.339Z,0
2018-06-15T01:08:36.435Z,0
2018-06-15T01:09:46.526Z,0
2018-06-15T01:10:56.625Z,0
2018-06-15T01:12:06.694Z,0
2018-06-15T01:13:16.765Z,0
2018-06-15T01:14:26.846Z,0
2018-06-15T01:15:36.374Z,0
2018-06-15T01:16:46.445Z,0
2018-06-15T01:17:56.517Z,0
2018-06-15T01:19:06.598Z,0
2018-06-15T01:20:16.414Z,0
2018-06-15T01:21:25.995Z,0
2018-06-15T01:22:36.065Z,0
2018-06-15T01:23:45.881Z,0
2018-06-15T01:24:56.012Z,0
2018-06-15T01:26:05.836Z,0
2018-06-15T01:27:15.654Z,0
2018-06-15T01:28:25.720Z,0
2018-06-15T01:29:35.525Z,0
2018-06-15T01:30:45.580Z,0
2018-06-15T01:31:55.381Z,0
2018-06-15T01:33:05.470Z,0
2018-06-15T01:34:15.535Z,0
2018-06-15T01:35:25.604Z,0
2018-06-15T01:36:35.665Z,0
2018-06-15T01:37:45.474Z,0
2018-06-15T01:38:55.569Z,0
2018-06-15T01:40:05.110Z,0
2018-06-15T01:41:15.188Z,0
2018-06-15T01:42:25.263Z,0
2018-06-15T01:43:35.320Z,0
2018-06-15T01:44:45.395Z,0
2018-06-15T01:45:55.477Z,0
2018-06-15T01:47:05.550Z,0
2018-06-15T01:48:15.359Z,0
2018-06-15T01:49:25.439Z,0
2018-06-15T01:50:35.249Z,0
2018-06-15T01:51:45.057Z,0
2018-06-15T01:52:54.865Z,0
2018-06-15T01:54:04.931Z,0
2018-06-15T01:55:14.741Z,0
2018-06-15T01:56:24.549Z,0
2018-06-15T01:57:34.639Z,0
2018-06-15T01:58:44.709Z,0
2018-06-15T01:59:54.776Z,0
2018-06-15T02:01:04.422Z,0
2018-06-15T02:02:14.521Z,0
2018-06-15T02:03:24.318Z,0
2018-06-15T02:04:34.372Z,0
2018-06-15T02:05:44.457Z,0
2018-06-15T02:06:54.528Z,0
2018-06-15T02:08:04.591Z,0
2018-06-15T02:09:14.659Z,0
2018-06-15T02:10:24.731Z,0
2018-06-15T02:11:34.886Z,0
2018-06-15T02:12:44.699Z,0
2018-06-15T02:13:54.790Z,0
2018-06-15T02:15:04.881Z,0
2018-06-15T02:16:14.944Z,0
2018-06-15T02:17:25.009Z,0
2018-06-15T02:18:35.077Z,0
2018-06-15T02:19:44.872Z,0
2018-06-15T02:20:54.675Z,0
2018-06-15T02:22:04.743Z,0
2018-06-15T02:23:14.818Z,0
2018-06-15T02:24:24.875Z,0
2018-06-15T02:25:34.950Z,0
2018-06-15T02:26:44.772Z,0
2018-06-15T02:27:54.558Z,0
2018-06-15T02:29:04.361Z,0
2018-06-15T02:30:14.407Z,0
2018-06-15T02:31:24.223Z,0
2018-06-15T02:32:34.314Z,0
2018-06-15T02:33:44.114Z,0
2018-06-15T02:34:53.921Z,0
2018-06-15T02:36:04.029Z,0
2018-06-15T02:37:14.105Z,0
2018-06-15T02:38:24.203Z,0
2018-06-15T02:39:34.300Z,0
2018-06-15T02:40:44.114Z,0
2018-06-15T02:41:53.916Z,0
2018-06-15T02:43:04.006Z,0
2018-06-15T02:44:14.063Z,0
2018-06-15T02:45:24.250Z,0
2018-06-15T02:46:34.067Z,0
2018-06-15T02:47:44.157Z,0
2018-06-15T02:48:53.979Z,0
2018-06-15T02:50:04.073Z,0
2018-06-15T02:51:14.148Z,0
2018-06-15T02:52:24.211Z,0
2018-06-15T02:53:34.308Z,0
2018-06-15T02:54:44.385Z,0
2018-06-15T02:55:54.192Z,0
2018-06-15T02:57:04.254Z,0
2018-06-15T02:58:14.069Z,0
2018-06-15T02:59:24.170Z,0
2018-06-15T03:00:34.319Z,0
2018-06-15T03:01:44.414Z,0
2018-06-15T03:02:54.508Z,0
2018-06-15T03:34:35.862Z,15
2018-06-15T03:35:45.916Z,15
2018-06-15T03:36:55.996Z,15
2018-06-15T03:38:06.058Z,15
2018-06-15T03:39:16.119Z,20
2018-06-15T03:40:26.194Z,20
2018-06-15T03:41:36.260Z,20
2018-06-15T03:42:46.320Z,25
2018-06-15T03:43:56.396Z,25
2018-06-15T03:45:06.464Z,25
2018-06-15T03:46:16.595Z,25
2018-06-15T03:47:26.664Z,25
2018-06-15T03:48:36.471Z,25
2018-06-15T03:49:46.544Z,25
2018-06-15T03:50:56.618Z,25
2018-06-15T03:52:06.446Z,20
2018-06-15T03:53:16.507Z,20
2018-06-15T03:54:26.316Z,20
2018-06-15T03:55:36.397Z,20
2018-06-15T03:56:46.205Z,20
2018-06-15T03:57:56.284Z,20
2018-06-15T03:59:06.445Z,20
2018-06-15T04:00:16.514Z,20
2018-06-15T04:01:26.336Z,20
2018-06-15T04:02:36.431Z,20
2018-06-15T04:03:46.538Z,20
2018-06-15T04:04:56.349Z,20
2018-06-15T04:06:06.428Z,20
2018-06-15T04:07:16.515Z,20
2018-06-15T04:08:26.597Z,25
2018-06-15T04:09:36.464Z,25
2018-06-15T04:10:46.528Z,25
2018-06-15T04:11:56.323Z,30
2018-06-15T04:13:06.761Z,30
2018-06-15T04:14:16.842Z,30
2018-06-15T04:15:26.655Z,30
2018-06-15T04:16:36.485Z,30
2018-06-15T04:17:46.548Z,30
2018-06-15T04:18:56.621Z,25
2018-06-15T04:20:06.712Z,25
2018-06-15T04:21:16.797Z,25
2018-06-15T04:22:26.858Z,25
2018-06-15T04:23:36.927Z,25
2018-06-15T04:24:46.985Z,25
2018-06-15T04:25:57.062Z,25
2018-06-15T04:27:07.137Z,25
2018-06-15T04:28:17.205Z,25
2018-06-15T04:29:27.279Z,25
2018-06-15T04:30:37.346Z,30
2018-06-15T04:31:47.434Z,30
2018-06-15T04:32:57.500Z,30
2018-06-15T04:34:07.357Z,30
2018-06-15T04:35:17.441Z,30
2018-06-15T04:36:27.266Z,30
2018-06-15T04:37:37.057Z,35
2018-06-15T04:38:46.872Z,35
2018-06-15T04:39:56.946Z,35
2018-06-15T04:41:06.748Z,35
2018-06-15T04:42:16.829Z,35
2018-06-15T04:43:26.920Z,35
2018-06-15T04:44:36.728Z,35
2018-06-15T04:45:46.801Z,35
2018-06-15T04:46:56.873Z,35
2018-06-15T04:48:06.940Z,35
2018-06-15T04:49:16.803Z,35
2018-06-15T04:50:26.875Z,35
2018-06-15T04:51:36.689Z,35
2018-06-15T04:52:46.775Z,40
2018-06-15T04:53:56.844Z,40
2018-06-15T04:55:06.912Z,40
2018-06-15T04:56:16.813Z,40
2018-06-15T04:57:26.671Z,40
2018-06-15T04:58:36.742Z,40
2018-06-15T04:59:46.566Z,40
2018-06-15T05:00:56.407Z,45
2018-06-15T05:02:06.494Z,45
2018-06-15T05:03:16.763Z,45
2018-06-15T05:04:26.628Z,40
2018-06-15T05:05:36.708Z,40
2018-06-15T05:06:46.795Z,40
2018-06-15T05:07:56.852Z,40
2018-06-15T05:09:06.411Z,40
2018-06-15T05:10:16.501Z,40
2018-06-15T05:11:26.317Z,40
2018-06-15T05:12:36.179Z,40
2018-06-15T05:13:45.997Z,45
2018-06-15T05:14:55.802Z,50
2018-06-15T05:16:05.872Z,55
2018-06-15T05:17:15.814Z,60
2018-06-15T05:18:25.892Z,70
2018-06-15T05:19:35.984Z,70
2018-06-15T05:20:46.062Z,75
2018-06-15T05:21:56.124Z,85
2018-06-15T05:23:06.197Z,90
2018-06-15T05:24:16.089Z,100
2018-06-15T05:25:26.173Z,130
2018-06-15T05:26:36.231Z,130
2018-06-15T05:27:46.312Z,145
2018-06-15T05:28:56.397Z,170
2018-06-15T05:30:06.473Z,325
2018-06-15T05:31:16.529Z,205
2018-06-15T05:32:26.593Z,405
2018-06-15T05:33:36.652Z,470
2018-06-15T05:34:46.464Z,280
2018-06-15T05:35:56.539Z,215
2018-06-15T05:37:06.626Z,180
2018-06-15T05:38:16.698Z,165
2018-06-15T05:39:26.511Z,160
2018-06-15T05:40:36.590Z,150
2018-06-15T05:41:46.676Z,145
2018-06-15T05:42:56.501Z,140
2018-06-15T05:44:06.325Z,135
2018-06-15T05:45:16.421Z,130
2018-06-15T05:46:26.495Z,125
2018-06-15T05:47:36.582Z,115
2018-06-15T05:48:46.400Z,105
2018-06-15T05:49:56.413Z,105
2018-06-15T05:51:06.505Z,100
2018-06-15T05:52:16.583Z,95
2018-06-15T05:53:26.397Z,95
2018-06-15T05:54:36.469Z,90
2018-06-15T05:55:46.797Z,90
2018-06-15T05:56:56.897Z,85
2018-06-15T05:58:06.697Z,80
2018-06-15T05:59:16.775Z,80
2018-06-15T06:00:26.849Z,75
2018-06-15T06:01:36.940Z,70
2018-06-15T06:02:47.007Z,70
2018-06-15T06:03:57.416Z,70
2018-06-15T06:05:07.611Z,70
2018-06-15T06:06:17.685Z,65
2018-06-15T06:07:27.771Z,65
2018-06-15T06:08:37.850Z,60
2018-06-15T06:09:47.926Z,60
2018-06-15T06:10:58.005Z,60
2018-06-15T06:12:08.071Z,60
2018-06-15T06:13:17.883Z,60
2018-06-15T06:14:27.951Z,55
2018-06-15T06:15:37.785Z,55
2018-06-15T06:16:47.916Z,55
2018-06-15T06:17:57.976Z,50
2018-06-15T06:19:08.047Z,50
2018-06-15T06:20:18.011Z,45
2018-06-15T06:21:27.829Z,45
2018-06-15T06:22:37.933Z,45
2018-06-15T06:23:47.999Z,45
2018-06-15T06:24:58.090Z,45
2018-06-15T06:26:07.643Z,50
2018-06-15T06:27:17.730Z,50
2018-06-15T06:28:27.799Z,55
2018-06-15T06:29:37.874Z,55
2018-06-15T06:30:47.945Z,55
2018-06-15T06:31:58.019Z,55
2018-06-15T06:33:08.098Z,55
2018-06-15T06:34:18.160Z,55
2018-06-15T06:35:28.247Z,55
2018-06-15T06:36:38.387Z,55
2018-06-15T06:37:47.936Z,55
2018-06-15T06:38:58.002Z,55
2018-06-15T06:40:07.828Z,55
2018-06-15T06:41:17.902Z,55
2018-06-15T06:42:28.018Z,55
2018-06-15T06:43:37.831Z,55
2018-06-15T06:44:47.937Z,55
2018-06-15T06:45:57.993Z,50
2018-06-15T06:47:07.806Z,50
2018-06-15T06:48:17.915Z,50
2018-06-15T06:49:27.733Z,50
2018-06-15T06:50:38.046Z,55
2018-06-15T06:51:48.149Z,55
2018-06-15T06:52:58.216Z,55
2018-06-15T06:54:08.295Z,60
2018-06-15T06:55:18.117Z,60
2018-06-15T06:56:27.682Z,60
2018-06-15T06:57:37.759Z,60
2018-06-15T06:58:47.842Z,60
2018-06-15T06:59:57.907Z,65
2018-06-15T07:01:07.717Z,65
2018-06-15T07:02:17.536Z,65
2018-06-15T07:03:27.366Z,65
2018-06-15T07:04:37.440Z,65
2018-06-15T07:05:47.505Z,65
2018-06-15T07:06:57.326Z,65
2018-06-15T07:08:07.399Z,65
2018-06-15T07:09:17.207Z,65
2018-06-15T07:10:27.285Z,65
2018-06-15T07:11:37.094Z,65
2018-06-15T07:12:47.173Z,65
2018-06-15T07:13:56.983Z,65
2018-06-15T07:15:07.053Z,65
2018-06-15T07:16:17.326Z,65
2018-06-15T07:17:27.661Z,60
2018-06-15T07:18:37.745Z,60
2018-06-15T07:19:47.810Z,60
2018-06-15T07:20:57.877Z,60
2018-06-15T07:22:07.699Z,60
2018-06-15T07:23:17.768Z,60
2018-06-15T07:24:27.837Z,60
2018-06-15T07:25:37.930Z,60
2018-06-15T07:26:48.036Z,60
2018-06-15T07:27:58.105Z,60
2018-06-15T07:29:07.913Z,55
2018-06-15T07:30:17.994Z,55
2018-06-15T07:31:28.090Z,55
2018-06-15T07:32:37.651Z,50
2018-06-15T07:33:47.748Z,50
2018-06-15T07:34:57.845Z,50
2018-06-15T07:36:07.945Z,50
2018-06-15T07:37:18.068Z,50
2018-06-15T07:38:28.152Z,50
2018-06-15T07:39:37.959Z,50
2018-06-15T07:40:47.833Z,50
2018-06-15T07:41:57.922Z,50
2018-06-15T07:43:07.995Z,45
2018-06-15T07:44:17.822Z,45
2018-06-15T07:45:27.895Z,45
2018-06-15T07:46:37.754Z,45
2018-06-15T07:47:47.585Z,45
2018-06-15T07:48:57.412Z,45
2018-06-15T07:50:07.479Z,45
2018-06-15T07:51:17.292Z,50
2018-06-15T07:52:27.513Z,50
2018-06-15T07:53:37.325Z,50
2018-06-15T07:54:47.392Z,45
2018-06-15T07:55:57.463Z,45
2018-06-15T07:57:07.610Z,50
2018-06-15T07:58:17.726Z,50
2018-06-15T07:59:27.649Z,50
2018-06-15T08:00:37.530Z,50
2018-06-15T08:01:47.609Z,55
2018-06-15T08:02:57.677Z,55
2018-06-15T08:04:07.754Z,55
2018-06-15T08:05:17.818Z,55
2018-06-15T08:06:27.888Z,55
2018-06-15T08:07:37.445Z,55
2018-06-15T08:08:47.257Z,60
2018-06-15T08:09:57.147Z,60
2018-06-15T08:11:07.019Z,60
2018-06-15T08:12:16.849Z,60
2018-06-15T08:13:26.929Z,60
2018-06-15T08:14:37.810Z,65
2018-06-15T08:15:48.227Z,60
2018-06-15T08:16:58.110Z,60
2018-06-15T08:18:08.486Z,55
2018-06-15T08:19:19.427Z,55
2018-06-15T08:20:29.571Z,55
2018-06-15T08:21:39.723Z,55
2018-06-15T08:22:49.820Z,55
2018-06-15T08:23:59.919Z,55
2018-06-15T08:25:09.770Z,55
2018-06-15T08:26:19.629Z,60
2018-06-15T08:27:29.463Z,65
2018-06-15T08:28:39.300Z,60
2018-06-15T08:29:49.399Z,60
2018-06-15T08:30:59.210Z,60
2018-06-15T08:32:09.284Z,60
2018-06-15T08:33:19.156Z,65
2018-06-15T08:34:29.235Z,65
2018-06-15T08:35:39.065Z,65
2018-06-15T08:36:49.201Z,65
2018-06-15T08:37:59.300Z,70
2018-06-15T08:39:09.393Z,70
2018-06-15T08:40:19.495Z,70
2018-06-15T08:41:39.545Z,75
2018-06-15T08:42:49.646Z,80
2018-06-15T08:43:59.762Z,85
2018-06-15T08:45:09.853Z,90
2018-06-15T08:46:19.943Z,90
2018-06-15T08:47:30.068Z,95
2018-06-15T08:48:40.178Z,100
2018-06-15T08:49:50.263Z,100
2018-06-15T08:51:00.352Z,100
2018-06-15T08:52:10.190Z,100
2018-06-15T08:53:20.322Z,105
2018-06-15T08:54:30.424Z,110
2018-06-15T08:55:40.247Z,105
2018-06-15T08:56:50.330Z,100
2018-06-15T08:58:01.536Z,100
2018-06-15T08:59:11.681Z,100
2018-06-15T09:00:21.771Z,105
2018-06-15T09:01:31.855Z,110
2018-06-15T09:02:41.979Z,115
2018-06-15T09:03:52.062Z,115
2018-06-15T09:05:01.895Z,120
2018-06-15T09:06:12.018Z,135
2018-06-15T09:07:21.842Z,145
2018-06-15T09:08:31.669Z,150
2018-06-15T09:09:41.741Z,165
2018-06-15T09:10:51.901Z,180
2018-06-15T09:12:01.730Z,185
2018-06-15T09:13:11.825Z,200
2018-06-15T09:14:21.637Z,200
2018-06-15T09:15:31.718Z,205
2018-06-15T09:16:41.317Z,200
2018-06-15T09:17:51.408Z,210
2018-06-15T09:19:01.217Z,220
2018-06-15T09:20:11.296Z,245
2018-06-15T09:21:21.396Z,260
2018-06-15T09:22:31.532Z,275
2018-06-15T09:23:41.612Z,285
2018-06-15T09:24:51.426Z,310
2018-06-15T09:26:01.506Z,315
2018-06-15T09:27:11.337Z,325
2018-06-15T09:28:21.165Z,335
2018-06-15T09:29:31.255Z,340
2018-06-15T09:30:41.072Z,340
2018-06-15T09:31:51.169Z,355
2018-06-15T09:33:01.251Z,355
2018-06-15T09:34:11.624Z,360
2018-06-15T09:35:21.728Z,360
2018-06-15T09:36:31.640Z,355
2018-06-15T09:37:41.742Z,355
2018-06-15T09:38:51.587Z,355
2018-06-15T09:40:01.680Z,355
2018-06-15T09:41:11.831Z,355
2018-06-15T09:42:21.924Z,360
2018-06-15T09:43:32.006Z,365
2018-06-15T09:44:42.080Z,360
2018-06-15T09:45:52.166Z,365
2018-06-15T09:47:02.258Z,365
2018-06-15T09:48:12.379Z,365
2018-06-15T09:49:22.494Z,355
2018-06-15T09:50:32.332Z,350
2018-06-15T09:51:42.204Z,350
2018-06-15T09:52:52.398Z,335
2018-06-15T09:54:02.654Z,335
2018-06-15T09:55:12.479Z,320
2018-06-15T09:56:22.563Z,315
2018-06-15T09:57:32.672Z,300
2018-06-15T09:58:42.538Z,290
2018-06-15T09:59:52.121Z,285
2018-06-15T10:01:02.202Z,285
2018-06-15T10:02:12.299Z,285
2018-06-15T10:03:21.879Z,285
2018-06-15T10:04:31.974Z,275
2018-06-15T10:05:42.069Z,270
2018-06-15T10:06:52.164Z,265
2018-06-15T10:08:02.254Z,265
2018-06-15T10:09:12.352Z,270
2018-06-15T10:10:22.166Z,260
2018-06-15T10:11:31.983Z,265
2018-06-15T10:12:42.091Z,270
2018-06-15T10:13:52.182Z,265
2018-06-15T10:15:02.292Z,270
2018-06-15T10:16:12.385Z,255
2018-06-15T10:17:22.472Z,255
2018-06-15T10:18:32.566Z,275
2018-06-15T10:19:42.649Z,260
2018-06-15T10:20:52.748Z,290
2018-06-15T10:22:02.578Z,290
2018-06-15T10:23:12.668Z,285
2018-06-15T10:24:22.807Z,285
2018-06-15T10:25:32.645Z,280
2018-06-15T10:26:42.771Z,280
2018-06-15T10:27:52.911Z,280
2018-06-15T10:29:02.769Z,290
2018-06-15T10:30:12.894Z,290
2018-06-15T10:31:22.991Z,290
2018-06-15T10:32:32.845Z,240
2018-06-15T10:33:42.692Z,290
2018-06-15T10:34:52.846Z,270
2018-06-15T10:36:03.057Z,295
2018-06-15T10:37:13.000Z,280
2018-06-15T10:38:23.305Z,310
2018-06-15T10:39:33.829Z,345
2018-06-15T10:40:44.179Z,340
2018-06-15T10:41:53.819Z,340
2018-06-15T10:43:03.648Z,275
2018-06-15T10:44:13.743Z,265
2018-06-15T10:45:23.546Z,305
2018-06-15T10:46:33.378Z,300
2018-06-15T10:47:43.249Z,355
2018-06-15T10:48:53.324Z,330
2018-06-15T10:50:03.156Z,275
2018-06-15T10:51:13.241Z,280
2018-06-15T10:52:23.060Z,285
2018-06-15T10:53:33.136Z,365
2018-06-15T10:54:43.219Z,375
2018-06-15T10:55:53.297Z,365
2018-06-15T10:57:03.387Z,305
2018-06-15T10:58:13.231Z,340
2018-06-15T10:59:23.322Z,280
2018-06-15T11:00:33.142Z,345
2018-06-15T11:01:42.973Z,295
2018-06-15T11:02:53.088Z,265
2018-06-15T11:04:03.186Z,275
2018-06-15T11:05:13.259Z,280
2018-06-15T11:06:23.348Z,285
2018-06-15T11:07:33.422Z,285
2018-06-15T11:08:43.679Z,295
2018-06-15T11:09:53.498Z,280
2018-06-15T11:11:03.346Z,280
2018-06-15T11:12:13.458Z,280
2018-06-15T11:13:23.551Z,275
2018-06-15T11:14:33.906Z,265
2018-06-15T11:15:43.863Z,250
2018-06-15T11:16:53.703Z,250
2018-06-15T11:18:03.781Z,280
2018-06-15T11:19:13.903Z,240
2018-06-15T11:20:24.059Z,250
2018-06-15T11:21:34.158Z,260
2018-06-15T11:22:44.259Z,270
2018-06-15T11:23:54.077Z,265
2018-06-15T11:25:03.888Z,255
2018-06-15T11:26:13.956Z,255
2018-06-15T11:27:23.803Z,255
2018-06-15T11:28:33.884Z,255
2018-06-15T11:29:44.187Z,265
2018-06-15T11:30:54.093Z,285
2018-06-15T11:32:03.928Z,360
2018-06-15T11:33:14.020Z,320
2018-06-15T11:34:24.109Z,320
2018-06-15T11:35:34.265Z,320
2018-06-15T11:36:44.369Z,315
2018-06-15T11:37:54.184Z,315
2018-06-15T11:39:04.284Z,310
2018-06-15T11:40:14.119Z,320
2018-06-15T11:41:25.121Z,335
2018-06-15T11:42:35.235Z,360
2018-06-15T11:43:45.341Z,355
2018-06-15T11:44:55.189Z,350
2018-06-15T11:46:05.291Z,335
2018-06-15T11:47:15.403Z,335
2018-06-15T11:48:25.494Z,325
2018-06-15T11:49:35.573Z,320
2018-06-15T11:50:45.661Z,325
2018-06-15T11:51:55.498Z,330
2018-06-15T11:53:05.575Z,340
2018-06-15T11:54:15.672Z,330
2018-06-15T11:55:25.775Z,325
2018-06-15T11:56:35.874Z,315
2018-06-15T11:57:45.707Z,305
2018-06-15T11:58:55.818Z,290
2018-06-15T12:00:05.931Z,270
2018-06-15T12:01:16.043Z,255
2018-06-15T12:02:26.156Z,230
2018-06-15T12:03:36.323Z,215
2018-06-15T12:04:46.464Z,205
2018-06-15T12:05:56.617Z,200
2018-06-15T12:07:06.749Z,195
2018-06-15T12:08:16.582Z,195
2018-06-15T12:09:26.684Z,190
2018-06-15T12:10:36.762Z,185
2018-06-15T12:11:46.844Z,180
2018-06-15T12:12:56.922Z,180
2018-06-15T12:14:07.028Z,180
2018-06-15T12:15:16.863Z,175
2018-06-15T12:16:26.954Z,175
2018-06-15T12:17:37.040Z,175
2018-06-15T12:18:46.877Z,175
2018-06-15T12:19:56.961Z,175
2018-06-15T12:21:07.104Z,180
2018-06-15T12:22:16.949Z,190
2018-06-15T12:23:26.776Z,195
2018-06-15T12:24:36.863Z,205
2018-06-15T12:25:46.668Z,210
2018-06-15T12:26:56.999Z,215
2018-06-15T12:28:06.809Z,215
2018-06-15T12:29:16.908Z,220
2018-06-15T12:30:27.002Z,225
2018-06-15T12:31:37.116Z,230
2018-06-15T12:32:47.451Z,230
2018-06-15T12:33:57.342Z,230
2018-06-15T12:35:07.422Z,225
2018-06-15T12:36:17.234Z,225
2018-06-15T12:37:27.063Z,220
2018-06-15T12:38:37.139Z,220
2018-06-15T12:39:47.218Z,210
2018-06-15T12:40:57.306Z,205
2018-06-15T12:42:07.389Z,200
2018-06-15T12:43:17.471Z,195
2018-06-15T12:44:27.558Z,195
2018-06-15T12:45:37.880Z,195
2018-06-15T12:46:47.996Z,205
2018-06-15T12:47:58.074Z,210
2018-06-15T12:49:08.180Z,210
2018-06-15T12:50:18.006Z,215
2018-06-15T12:51:28.084Z,220
2018-06-15T12:52:37.387Z,225
2018-06-15T12:53:46.993Z,235
2018-06-15T12:54:56.824Z,240
2018-06-15T12:56:06.662Z,245
2018-06-15T12:57:16.092Z,245
2018-06-15T12:58:26.201Z,240
2018-06-15T12:59:35.777Z,240
2018-06-15T13:00:45.881Z,240
2018-06-15T13:01:55.434Z,240
2018-06-15T13:03:05.518Z,240
2018-06-15T13:04:15.089Z,245
2018-06-15T13:05:25.167Z,240
2018-06-15T13:06:35.273Z,240
2018-06-15T13:07:45.180Z,235
2018-06-15T13:08:54.992Z,235
2018-06-15T13:10:05.083Z,230
2018-06-15T13:11:15.179Z,230
2018-06-15T13:12:25.021Z,235
2018-06-15T13:13:34.906Z,235
2018-06-15T13:14:44.726Z,245
2018-06-15T13:15:54.816Z,250
2018-06-15T13:17:04.630Z,255
2018-06-15T13:18:14.464Z,265
2018-06-15T13:19:24.292Z,275
2018-06-15T13:20:34.381Z,275
2018-06-15T13:21:44.220Z,275
2018-06-15T13:22:53.780Z,280
2018-06-15T13:24:03.326Z,280
2018-06-15T13:25:12.877Z,280
2018-06-15T13:26:22.976Z,280
2018-06-15T13:27:32.812Z,280
2018-06-15T13:28:42.680Z,285
2018-06-15T13:29:51.972Z,300
2018-06-15T13:31:01.852Z,300
2018-06-15T13:32:11.683Z,300
2018-06-15T13:33:21.775Z,305
2018-06-15T13:34:31.617Z,310
2018-06-15T13:35:41.192Z,300
2018-06-15T13:36:51.346Z,295
2018-06-15T13:38:01.192Z,285
2018-06-15T13:39:11.302Z,285
2018-06-15T13:40:21.421Z,285
2018-06-15T13:41:31.526Z,285
2018-06-15T13:42:41.116Z,280
2018-06-15T13:43:50.953Z,280
2018-06-15T13:45:00.783Z,285
2018-06-15T13:46:10.881Z,280
2018-06-15T13:47:20.726Z,285
2018-06-15T13:48:30.610Z,285
2018-06-15T13:49:39.919Z,295
2018-06-15T13:50:49.747Z,305
2018-06-15T13:51:59.844Z,305
2018-06-15T13:53:09.961Z,305
2018-06-15T13:54:19.523Z,305
2018-06-15T13:55:29.617Z,310
2018-06-15T13:56:39.727Z,290
2018-06-15T13:57:49.575Z,285
2018-06-15T13:58:59.667Z,270
2018-06-15T14:00:09.265Z,265
2018-06-15T14:01:19.511Z,265
2018-06-15T14:02:29.327Z,265
2018-06-15T14:03:39.135Z,285
2018-06-15T14:04:48.428Z,280
2018-06-15T14:05:58.303Z,285
2018-06-15T14:07:08.193Z,275
2018-06-15T14:08:18.294Z,275
2018-06-15T14:09:28.123Z,285
2018-06-15T14:10:38.215Z,325
2018-06-15T14:11:48.359Z,325
2018-06-15T14:12:58.360Z,315
2018-06-15T14:14:08.422Z,320
2018-06-15T14:15:18.517Z,325
2018-06-15T14:16:28.345Z,315
2018-06-15T14:17:37.996Z,300
2018-06-15T14:18:47.575Z,280
2018-06-15T14:19:57.678Z,285
2018-06-15T14:21:07.786Z,285
2018-06-15T14:22:17.347Z,295
2018-06-15T14:23:27.435Z,310
2018-06-15T14:24:37.527Z,295
2018-06-15T14:25:46.819Z,295
2018-06-15T14:26:56.932Z,265
2018-06-15T14:28:07.016Z,235
2018-06-15T14:29:16.704Z,235
2018-06-15T14:30:26.306Z,240
2018-06-15T14:31:35.879Z,280
2018-06-15T14:32:45.476Z,280
2018-06-15T14:33:55.539Z,285
2018-06-15T14:35:05.425Z,265
2018-06-15T14:36:15.517Z,260
2018-06-15T14:37:25.374Z,265
2018-06-15T14:38:35.486Z,270
2018-06-15T14:39:45.813Z,270
2018-06-15T14:40:55.714Z,270
2018-06-15T14:42:05.805Z,260
2018-06-15T14:43:15.892Z,280
2018-06-15T14:44:25.751Z,280
2018-06-15T14:45:35.605Z,290
2018-06-15T14:46:45.258Z,295
2018-06-15T14:47:54.826Z,275
2018-06-15T14:49:04.654Z,270
2018-06-15T14:50:14.510Z,275
2018-06-15T14:51:24.385Z,280
2018-06-15T14:52:34.202Z,280
2018-06-15T14:53:44.022Z,275
2018-06-15T14:54:54.103Z,265
2018-06-15T14:56:04.199Z,240
2018-06-15T14:57:14.295Z,255
2018-06-15T14:58:24.489Z,255
2018-06-15T14:59:34.056Z,210
2018-06-15T15:00:44.224Z,255
2018-06-15T15:01:53.534Z,210
2018-06-15T15:03:03.629Z,210
2018-06-15T15:04:13.715Z,230
2018-06-15T15:05:23.814Z,250
2018-06-15T15:06:33.976Z,200
2018-06-15T15:07:43.531Z,195
2018-06-15T15:08:53.361Z,190
2018-06-15T15:10:03.764Z,190
2018-06-15T15:11:13.600Z,190
2018-06-15T15:12:22.923Z,195
2018-06-15T15:13:32.733Z,190
2018-06-15T15:14:42.272Z,185
2018-06-15T15:15:52.165Z,190
2018-06-15T15:17:02.297Z,195
2018-06-15T15:18:12.503Z,195
2018-06-15T15:19:22.286Z,200
2018-06-15T15:20:32.459Z,205
2018-06-15T15:21:42.293Z,240
2018-06-15T15:22:51.337Z,230
2018-06-15T15:24:01.498Z,210
2018-06-15T15:25:11.313Z,185
2018-06-15T15:26:21.163Z,185
2018-06-15T15:27:30.989Z,175
2018-06-15T15:28:41.118Z,175
2018-06-15T15:29:50.970Z,195
2018-06-15T15:31:00.538Z,190
2018-06-15T15:32:10.089Z,170
2018-06-15T15:33:19.922Z,140
2018-06-15T15:34:29.747Z,115
2018-06-15T15:35:39.051Z,100
2018-06-15T15:36:49.137Z,90
2018-06-15T15:37:59.242Z,85
2018-06-15T15:39:09.357Z,75
2018-06-15T15:40:19.184Z,70
2018-06-15T15:41:28.753Z,70
2018-06-15T15:42:38.573Z,70
2018-06-15T15:43:48.377Z,70
2018-06-15T15:44:58.653Z,70
2018-06-15T15:46:08.439Z,70
2018-06-15T15:47:18.545Z,70
2018-06-15T15:48:28.642Z,75
2018-06-15T15:49:38.477Z,80
2018-06-15T15:50:48.327Z,95
2018-06-15T15:51:58.144Z,95
2018-06-15T15:53:07.722Z,100
2018-06-15T15:54:17.559Z,110
2018-06-15T15:55:27.146Z,115
2018-06-15T15:56:37.271Z,120
2018-06-15T15:57:47.484Z,125
2018-06-15T15:58:57.337Z,135
2018-06-15T16:00:07.198Z,135
2018-06-15T16:01:17.011Z,135
2018-06-15T16:02:26.868Z,140
2018-06-15T16:03:36.736Z,140
2018-06-15T16:04:46.291Z,135
2018-06-15T16:05:56.429Z,140
2018-06-15T16:07:06.561Z,140
2018-06-15T16:08:16.109Z,140
2018-06-15T16:09:26.233Z,140
2018-06-15T16:10:35.544Z,145
2018-06-15T16:11:45.118Z,145
2018-06-15T16:12:54.670Z,145
2018-06-15T16:14:04.864Z,145
2018-06-15T16:15:14.451Z,145
2018-06-15T16:16:24.026Z,145
2018-06-15T16:17:33.885Z,145
2018-06-15T16:18:43.708Z,145
2018-06-15T16:19:53.333Z,140
2018-06-15T16:21:03.149Z,140
2018-06-15T16:22:12.980Z,135
2018-06-15T16:23:23.146Z,130
2018-06-15T16:24:32.971Z,125
2018-06-15T16:25:42.802Z,120
2018-06-15T16:26:52.659Z,125
2018-06-15T16:28:02.241Z,115
2018-06-15T16:29:11.835Z,110
2018-06-15T16:30:21.678Z,105
2018-06-15T16:31:31.784Z,100
2018-06-15T16:32:41.872Z,90
2018-06-15T16:33:51.696Z,90
2018-06-15T16:35:01.548Z,85
2018-06-15T16:36:11.405Z,80
2018-06-15T16:37:21.168Z,70
2018-06-15T16:38:31.004Z,65
2018-06-15T16:39:41.093Z,60
2018-06-15T16:40:51.190Z,50
2018-06-15T16:42:01.299Z,45
2018-06-15T16:43:11.241Z,45
2018-06-15T16:44:21.106Z,45
2018-06-15T16:45:30.722Z,45
2018-06-15T16:46:40.587Z,45
2018-06-15T16:47:50.439Z,45
2018-06-15T16:49:00.547Z,45
2018-06-15T16:50:10.707Z,50
2018-06-15T16:51:20.867Z,50
2018-06-15T16:52:30.160Z,50
2018-06-15T16:53:40.255Z,55
2018-06-15T16:54:50.612Z,55
2018-06-15T16:56:00.463Z,55
2018-06-15T16:57:10.163Z,55
2018-06-15T16:58:19.987Z,55